Time;durP1;ratioP1;P1;durP2;ratioP2;P2;SDS_P1;SDS_P2;PMS_P1;PMS_P2;Temp;Humidity;BMP_temperature;BMP_pressure;BME280_temperature;BME280_humidity;BME280_pressure;Samples;Min_cycle;Max_cycle;Signal;HPM_P1;HPM_P2
2022/12/04 00:01:40;;;;;;;26.40;17.60;;;;;;;;;;5026765;28;20743;-65
2022/12/04 00:04:06;;;;;;;26.57;17.20;;;;;;;;;;5020053;28;20192;-65
2022/12/04 00:06:32;;;;;;;29.97;17.83;;;;;;;;;;5028785;28;20180;-65
2022/12/04 00:08:58;;;;;;;28.60;17.40;;;;;;;;;;5028334;28;20185;-65
2022/12/04 00:11:25;;;;;;;30.47;18.70;;;;;;;;;;5031722;28;20438;-66
2022/12/04 00:13:51;;;;;;;28.30;18.13;;;;;;;;;;5030631;28;20663;-65
2022/12/04 00:16:17;;;;;;;29.30;19.50;;;;;;;;;;5032180;28;20478;-65
2022/12/04 00:18:43;;;;;;;32.93;18.97;;;;;;;;;;5029759;28;20175;-65
2022/12/04 00:21:09;;;;;;;29.73;17.20;;;;;;;;;;5016410;28;20466;-63
2022/12/04 00:23:35;;;;;;;30.27;19.53;;;;;;;;;;5034375;28;20274;-65
2022/12/04 00:26:05;;;;;;;29.40;19.20;;;;;;;;;;5028437;28;20511;-65
2022/12/04 00:28:31;;;;;;;30.83;18.50;;;;;;;;;;5027866;28;20219;-65
2022/12/04 00:30:56;;;;;;;26.40;16.60;;;;;;;;;;5011316;28;20483;-65
2022/12/04 00:33:24;;;;;;;25.23;17.53;;;;;;;;;;5028783;28;20270;-65
2022/12/04 00:35:56;;;;;;;24.50;16.17;;;;;;;;;;5026786;28;20262;-64
2022/12/04 00:38:23;;;;;;;29.10;17.13;;;;;;;;;;5021257;28;20430;-66
2022/12/04 00:40:49;;;;;;;30.77;18.60;;;;;;;;;;5027019;28;20454;-65
2022/12/04 00:43:14;;;;;;;28.10;18.13;;;;;;;;;;5030313;28;20433;-66
2022/12/04 00:45:40;;;;;;;27.43;17.23;;;;;;;;;;5024788;28;20651;-65
2022/12/04 00:48:05;;;;;;;29.93;18.50;;;;;;;;;;5020171;28;20266;-65
2022/12/04 00:50:31;;;;;;;28.27;18.20;;;;;;;;;;5024833;28;20274;-64
2022/12/04 00:52:56;;;;;;;31.43;19.33;;;;;;;;;;5029475;28;20205;-65
2022/12/04 00:55:22;;;;;;;26.97;18.00;;;;;;;;;;5016300;28;20272;-66
2022/12/04 00:57:47;;;;;;;27.97;17.40;;;;;;;;;;5008320;28;20200;-65
2022/12/04 01:00:12;;;;;;;30.83;19.57;;;;;;;;;;5023544;28;20215;-65
2022/12/04 01:02:38;;;;;;;29.23;19.27;;;;;;;;;;5030027;28;20223;-64
2022/12/04 01:05:03;;;;;;;30.07;19.33;;;;;;;;;;5025463;28;20680;-65
2022/12/04 01:07:28;;;;;;;28.73;17.83;;;;;;;;;;5030663;28;20234;-65
2022/12/04 01:09:54;;;;;;;30.10;18.20;;;;;;;;;;5030317;28;20200;-65
2022/12/04 01:12:19;;;;;;;27.57;18.53;;;;;;;;;;5026529;28;21179;-65
2022/12/04 01:14:44;;;;;;;29.53;19.47;;;;;;;;;;5031153;28;20195;-64
2022/12/04 01:17:10;;;;;;;28.03;18.57;;;;;;;;;;5033058;28;20302;-65
2022/12/04 01:19:35;;;;;;;33.73;18.53;;;;;;;;;;5031705;28;20257;-63
2022/12/04 01:22:00;;;;;;;27.07;18.63;;;;;;;;;;5028085;28;20242;-65
2022/12/04 01:24:26;;;;;;;27.40;18.60;;;;;;;;;;5031032;28;20183;-65
2022/12/04 01:26:51;;;;;;;30.87;19.40;;;;;;;;;;5031197;28;20184;-64
2022/12/04 01:29:16;;;;;;;33.03;20.57;;;;;;;;;;5015967;28;20246;-65
2022/12/04 01:31:41;;;;;;;30.73;18.20;;;;;;;;;;5030950;28;20241;-65
2022/12/04 01:34:07;;;;;;;27.53;18.60;;;;;;;;;;5025089;28;20678;-65
2022/12/04 01:36:32;;;;;;;29.17;18.73;;;;;;;;;;5010672;28;20216;-66
2022/12/04 01:38:57;;;;;;;30.27;18.77;;;;;;;;;;5025429;28;20176;-64
2022/12/04 01:41:24;;;;;;;25.50;18.60;;;;;;;;;;5025949;28;21093;-64
2022/12/04 01:44:25;;;;;;;32.87;19.60;;;;;;;;;;5026058;28;20176;-65
2022/12/04 01:46:51;;;;;;;28.57;18.43;;;;;;;;;;4921390;29;20479;-65
2022/12/04 01:49:20;;;;;;;26.80;19.00;;;;;;;;;;5000008;28;20454;-65
2022/12/04 01:51:49;;;;;;;28.87;18.70;;;;;;;;;;5023800;28;20458;-65
2022/12/04 01:54:17;;;;;;;35.03;20.80;;;;;;;;;;5026994;28;20530;-64
2022/12/04 01:56:42;;;;;;;28.37;19.70;;;;;;;;;;5024846;28;20466;-65
2022/12/04 01:59:08;;;;;;;32.50;19.70;;;;;;;;;;5020132;28;20454;-65
2022/12/04 02:01:38;;;;;;;30.93;19.20;;;;;;;;;;5030847;28;20175;-66
2022/12/04 02:04:03;;;;;;;30.03;20.13;;;;;;;;;;5036856;28;20222;-64
2022/12/04 02:06:28;;;;;;;31.73;21.20;;;;;;;;;;5034721;28;20783;-65
2022/12/04 02:08:54;;;;;;;35.27;20.57;;;;;;;;;;5034004;28;20179;-65
2022/12/04 02:11:19;;;;;;;33.03;21.97;;;;;;;;;;5037574;28;20182;-66
2022/12/04 02:14:07;;;;;;;32.33;20.40;;;;;;;;;;5037498;28;20718;-65
2022/12/04 02:16:46;;;;;;;31.03;22.10;;;;;;;;;;5022517;28;20223;-65
2022/12/04 02:19:14;;;;;;;37.67;22.73;;;;;;;;;;5036632;28;20462;-65
2022/12/04 02:21:42;;;;;;;34.50;22.80;;;;;;;;;;5018949;28;20865;-65
2022/12/04 02:24:13;;;;;;;36.13;22.30;;;;;;;;;;5036527;28;20455;-66
2022/12/04 02:26:43;;;;;;;34.93;23.00;;;;;;;;;;5032903;28;20431;-65
2022/12/04 02:29:14;;;;;;;36.47;23.23;;;;;;;;;;5032678;28;20494;-65
2022/12/04 02:31:47;;;;;;;34.70;23.37;;;;;;;;;;5033982;28;20439;-65
2022/12/04 02:34:20;;;;;;;33.03;22.30;;;;;;;;;;5028770;28;20477;-65
2022/12/04 02:36:54;;;;;;;33.43;22.33;;;;;;;;;;5028398;28;20474;-65
2022/12/04 02:39:40;;;;;;;32.90;21.97;;;;;;;;;;5030257;28;21003;-65
2022/12/04 02:42:05;;;;;;;31.77;21.60;;;;;;;;;;5030061;28;20423;-65
2022/12/04 02:44:36;;;;;;;41.10;24.40;;;;;;;;;;5014543;28;20441;-64
2022/12/04 02:47:03;;;;;;;32.13;22.20;;;;;;;;;;5027687;28;20214;-65
2022/12/04 02:49:41;;;;;;;35.00;21.57;;;;;;;;;;5013996;28;20490;-66
2022/12/04 02:52:08;;;;;;;35.13;22.33;;;;;;;;;;5012769;28;20450;-65
2022/12/04 02:54:36;;;;;;;30.70;22.13;;;;;;;;;;5029437;28;20960;-65
2022/12/04 02:57:03;;;;;;;34.20;23.33;;;;;;;;;;5028038;28;20818;-66
2022/12/04 02:59:39;;;;;;;34.30;22.80;;;;;;;;;;5026170;28;20450;-64
2022/12/04 03:02:11;;;;;;;38.87;24.73;;;;;;;;;;5024769;28;20429;-64
2022/12/04 03:04:38;;;;;;;36.17;23.80;;;;;;;;;;5028415;28;20521;-66
2022/12/04 03:07:06;;;;;;;37.30;23.90;;;;;;;;;;5007565;28;20437;-65
2022/12/04 03:09:34;;;;;;;37.07;25.90;;;;;;;;;;5015814;28;20446;-65
2022/12/04 03:12:14;;;;;;;40.90;26.30;;;;;;;;;;5032707;28;21058;-66
2022/12/04 03:14:43;;;;;;;34.47;24.10;;;;;;;;;;5033821;28;20438;-65
2022/12/04 03:17:13;;;;;;;33.13;23.07;;;;;;;;;;5037547;28;20461;-66
2022/12/04 03:19:41;;;;;;;35.47;24.60;;;;;;;;;;5037925;28;20465;-66
2022/12/04 03:22:11;;;;;;;34.80;24.43;;;;;;;;;;5031994;28;20427;-66
2022/12/04 03:24:37;;;;;;;38.70;25.23;;;;;;;;;;5028578;28;20477;-64
2022/12/04 03:27:03;;;;;;;36.90;25.33;;;;;;;;;;5034489;28;20484;-65
2022/12/04 03:29:42;;;;;;;40.30;26.23;;;;;;;;;;5033042;28;20458;-67
2022/12/04 03:32:11;;;;;;;35.00;23.30;;;;;;;;;;5032988;28;20183;-65
2022/12/04 03:34:51;;;;;;;40.73;24.90;;;;;;;;;;5031670;28;20427;-65
2022/12/04 03:37:18;;;;;;;39.77;25.43;;;;;;;;;;5027716;28;20879;-65
2022/12/04 03:39:43;;;;;;;36.60;25.03;;;;;;;;;;5029836;28;20450;-65
2022/12/04 03:42:12;;;;;;;36.93;24.20;;;;;;;;;;5029517;28;20500;-65
2022/12/04 03:44:37;;;;;;;34.17;24.10;;;;;;;;;;5026942;28;20222;-65
2022/12/04 03:47:28;;;;;;;35.90;25.40;;;;;;;;;;5009992;28;20950;-66
2022/12/04 03:49:54;;;;;;;38.07;26.37;;;;;;;;;;5008588;28;20287;-65
2022/12/04 03:52:39;;;;;;;37.77;25.57;;;;;;;;;;5015125;28;20442;-65
2022/12/04 03:55:07;;;;;;;35.03;24.97;;;;;;;;;;5007400;28;20191;-65
2022/12/04 03:57:36;;;;;;;34.83;24.40;;;;;;;;;;5020738;28;20837;-65
2022/12/04 04:00:06;;;;;;;38.27;26.43;;;;;;;;;;5014425;28;20454;-64
2022/12/04 04:02:33;;;;;;;33.53;24.10;;;;;;;;;;5012920;28;20496;-65
2022/12/04 04:04:59;;;;;;;41.50;26.80;;;;;;;;;;5026282;28;20925;-66
2022/12/04 04:07:27;;;;;;;36.50;26.47;;;;;;;;;;5029132;28;20867;-65
2022/12/04 04:09:56;;;;;;;37.93;26.03;;;;;;;;;;5023809;28;20453;-65
2022/12/04 04:12:24;;;;;;;38.20;26.37;;;;;;;;;;5029628;28;20439;-66
2022/12/04 04:26:20;;;;;;;38.50;26.10;;;;;;;;;;5025828;28;20445;-65
2022/12/04 04:28:46;;;;;;;35.00;25.60;;;;;;;;;;5022761;28;20529;-65
2022/12/04 04:31:20;;;;;;;41.23;27.30;;;;;;;;;;5027680;28;20562;-66
2022/12/04 04:33:49;;;;;;;36.13;26.80;;;;;;;;;;5018590;28;20566;-66
2022/12/04 04:36:20;;;;;;;39.67;24.27;;;;;;;;;;5017436;28;20822;-65
2022/12/04 04:38:51;;;;;;;39.00;26.17;;;;;;;;;;5025883;28;20427;-66
2022/12/04 04:41:30;;;;;;;37.80;26.00;;;;;;;;;;5008040;28;21020;-65
2022/12/04 04:44:19;;;;;;;39.10;28.00;;;;;;;;;;5027685;28;20434;-66
2022/12/04 04:46:51;;;;;;;40.27;26.47;;;;;;;;;;5013442;28;20926;-66
2022/12/04 04:49:18;;;;;;;38.63;27.00;;;;;;;;;;5029678;28;20969;-66
2022/12/04 04:51:44;;;;;;;39.93;27.30;;;;;;;;;;5025184;28;20940;-65
2022/12/04 04:54:12;;;;;;;41.57;27.57;;;;;;;;;;5029240;28;20440;-66
2022/12/04 04:56:41;;;;;;;38.23;26.43;;;;;;;;;;5025740;28;21095;-65
2022/12/04 04:59:06;;;;;;;41.43;28.50;;;;;;;;;;5022690;28;20431;-65
2022/12/04 05:01:31;;;;;;;35.50;26.00;;;;;;;;;;5028651;28;20430;-65
2022/12/04 05:03:56;;;;;;;39.07;26.43;;;;;;;;;;5022863;28;20282;-65
2022/12/04 05:06:22;;;;;;;42.43;28.10;;;;;;;;;;5028627;28;20429;-65
2022/12/04 05:08:48;;;;;;;44.50;29.90;;;;;;;;;;5031287;28;20231;-66
2022/12/04 05:11:14;;;;;;;42.43;27.70;;;;;;;;;;5031723;28;20234;-66
2022/12/04 05:13:40;;;;;;;42.53;29.37;;;;;;;;;;5033272;28;20470;-65
2022/12/04 05:16:07;;;;;;;38.87;27.70;;;;;;;;;;5034368;28;20522;-66
2022/12/04 05:18:33;;;;;;;39.03;27.47;;;;;;;;;;5020365;28;20183;-66
2022/12/04 05:20:58;;;;;;;39.03;27.40;;;;;;;;;;5023857;28;21001;-65
2022/12/04 05:23:24;;;;;;;41.20;29.47;;;;;;;;;;5036936;28;20550;-66
2022/12/04 05:25:49;;;;;;;39.80;27.77;;;;;;;;;;5038628;28;20176;-65
2022/12/04 05:28:14;;;;;;;38.10;27.03;;;;;;;;;;5037419;28;20259;-66
2022/12/04 05:30:40;;;;;;;45.60;27.97;;;;;;;;;;5037432;28;20694;-66
2022/12/04 05:33:05;;;;;;;37.90;26.10;;;;;;;;;;5035348;28;20200;-66
2022/12/04 05:35:30;;;;;;;39.73;28.00;;;;;;;;;;5033782;28;20183;-66
2022/12/04 05:37:55;;;;;;;45.07;29.73;;;;;;;;;;5016258;28;20595;-66
2022/12/04 05:40:21;;;;;;;41.20;29.27;;;;;;;;;;5030338;28;20674;-66
2022/12/04 05:42:46;;;;;;;41.10;28.60;;;;;;;;;;5028656;28;20176;-66
2022/12/04 05:45:11;;;;;;;41.63;27.30;;;;;;;;;;5028427;28;20180;-65
2022/12/04 05:47:38;;;;;;;38.43;27.67;;;;;;;;;;5026077;28;20238;-66
2022/12/04 05:50:03;;;;;;;37.47;26.30;;;;;;;;;;5025955;28;20212;-66
2022/12/04 05:52:28;;;;;;;41.10;27.53;;;;;;;;;;5024627;28;20450;-65
2022/12/04 05:54:54;;;;;;;38.17;27.10;;;;;;;;;;5017368;28;20180;-65
2022/12/04 05:57:19;;;;;;;39.23;27.10;;;;;;;;;;5023588;28;20218;-64
2022/12/04 05:59:44;;;;;;;39.03;26.43;;;;;;;;;;5024476;28;20258;-65
2022/12/04 06:02:10;;;;;;;37.80;26.20;;;;;;;;;;5028264;28;20177;-66
2022/12/04 06:04:36;;;;;;;38.90;25.83;;;;;;;;;;5025568;28;20682;-66
2022/12/04 06:07:04;;;;;;;36.90;25.67;;;;;;;;;;5025151;28;20583;-66
2022/12/04 06:09:29;;;;;;;35.87;24.37;;;;;;;;;;5008655;28;21127;-65
2022/12/04 06:11:56;;;;;;;34.20;24.23;;;;;;;;;;5023736;28;20450;-65
2022/12/04 06:14:21;;;;;;;38.20;26.53;;;;;;;;;;5027033;28;20191;-66
2022/12/04 06:16:46;;;;;;;37.03;25.27;;;;;;;;;;5026896;28;20552;-66
2022/12/04 06:19:14;;;;;;;34.70;25.43;;;;;;;;;;5025806;28;20211;-65
2022/12/04 06:21:40;;;;;;;35.40;24.50;;;;;;;;;;5028930;28;20646;-65
2022/12/04 06:24:07;;;;;;;36.10;25.17;;;;;;;;;;5030613;28;20497;-66
2022/12/04 06:26:32;;;;;;;37.43;26.80;;;;;;;;;;5030118;28;20480;-66
2022/12/04 06:28:58;;;;;;;41.57;27.13;;;;;;;;;;5030079;28;20437;-66
2022/12/04 06:31:24;;;;;;;35.97;25.93;;;;;;;;;;5031197;28;20278;-66
2022/12/04 06:33:51;;;;;;;37.20;26.30;;;;;;;;;;5030903;28;21143;-66
2022/12/04 06:36:17;;;;;;;38.20;27.63;;;;;;;;;;5029494;28;20437;-66
2022/12/04 06:38:43;;;;;;;34.97;24.63;;;;;;;;;;5027188;28;20423;-65
2022/12/04 06:41:10;;;;;;;36.67;25.37;;;;;;;;;;5011578;28;20454;-66
2022/12/04 06:43:36;;;;;;;35.57;25.83;;;;;;;;;;5017442;28;20843;-66
2022/12/04 06:46:02;;;;;;;38.67;25.70;;;;;;;;;;5033735;28;20540;-66
2022/12/04 06:48:28;;;;;;;36.47;25.50;;;;;;;;;;5026084;28;20215;-64
2022/12/04 06:51:16;;;;;;;37.17;25.80;;;;;;;;;;5024183;28;20600;-66
2022/12/04 06:53:41;;;;;;;36.90;26.67;;;;;;;;;;5024044;28;20442;-66
2022/12/04 06:56:08;;;;;;;34.33;24.47;;;;;;;;;;5021509;28;20436;-65
2022/12/04 06:58:34;;;;;;;37.17;25.63;;;;;;;;;;5028376;28;20190;-66
2022/12/04 07:01:04;;;;;;;36.20;25.73;;;;;;;;;;5027276;28;20454;-65
2022/12/04 07:03:29;;;;;;;38.73;25.40;;;;;;;;;;5027376;28;20184;-66
2022/12/04 07:05:55;;;;;;;35.83;24.90;;;;;;;;;;5009460;28;20453;-65
2022/12/04 07:08:20;;;;;;;34.97;25.20;;;;;;;;;;5025092;28;20643;-65
2022/12/04 07:10:45;;;;;;;34.73;25.47;;;;;;;;;;5026711;28;20213;-65
2022/12/04 07:13:11;;;;;;;34.33;24.10;;;;;;;;;;5026160;28;20246;-66
2022/12/04 07:15:36;;;;;;;34.97;23.70;;;;;;;;;;5029577;28;20311;-66
2022/12/04 07:18:02;;;;;;;32.63;24.40;;;;;;;;;;5034785;28;20261;-66
2022/12/04 07:20:27;;;;;;;32.93;23.37;;;;;;;;;;5038441;28;20188;-66
2022/12/04 07:22:53;;;;;;;35.17;24.83;;;;;;;;;;5033595;28;20309;-66
2022/12/04 07:25:21;;;;;;;33.77;22.37;;;;;;;;;;5009710;28;20181;-65
2022/12/04 07:27:49;;;;;;;29.13;21.23;;;;;;;;;;5031053;28;20217;-66
2022/12/04 07:30:14;;;;;;;30.03;22.40;;;;;;;;;;5013202;28;20445;-65
2022/12/04 07:32:39;;;;;;;30.43;22.10;;;;;;;;;;5029800;28;20434;-66
2022/12/04 07:35:05;;;;;;;31.73;23.47;;;;;;;;;;5032505;28;20299;-66
2022/12/04 07:37:30;;;;;;;29.80;22.20;;;;;;;;;;5025608;28;20236;-66
2022/12/04 07:39:55;;;;;;;32.13;22.30;;;;;;;;;;5026885;28;20301;-65
2022/12/04 07:42:21;;;;;;;32.03;21.00;;;;;;;;;;5028761;28;20550;-65
2022/12/04 07:44:46;;;;;;;35.20;22.80;;;;;;;;;;5029969;28;20195;-66
2022/12/04 07:47:14;;;;;;;30.07;22.30;;;;;;;;;;5030301;28;20188;-65
2022/12/04 07:49:39;;;;;;;29.93;21.53;;;;;;;;;;5027082;28;20199;-66
2022/12/04 07:52:04;;;;;;;32.60;22.07;;;;;;;;;;5021398;28;21064;-66
2022/12/04 07:54:30;;;;;;;28.47;21.80;;;;;;;;;;5025573;28;20196;-66
2022/12/04 07:56:55;;;;;;;30.70;22.37;;;;;;;;;;5027797;28;20227;-65
2022/12/04 07:59:20;;;;;;;26.90;19.70;;;;;;;;;;5037267;28;20196;-66
2022/12/04 08:01:46;;;;;;;30.30;22.03;;;;;;;;;;5036544;28;20188;-66
2022/12/04 08:04:11;;;;;;;27.43;19.70;;;;;;;;;;5037442;28;20561;-66
2022/12/04 08:06:37;;;;;;;28.43;21.00;;;;;;;;;;5035495;28;20199;-66
2022/12/04 08:09:03;;;;;;;30.80;22.50;;;;;;;;;;5028565;28;20188;-65
2022/12/04 08:11:28;;;;;;;32.40;21.60;;;;;;;;;;5016882;28;20195;-66
2022/12/04 08:13:54;;;;;;;32.87;23.00;;;;;;;;;;5036252;28;20434;-66
2022/12/04 08:16:20;;;;;;;27.00;18.40;;;;;;;;;;5031048;28;20258;-65
2022/12/04 08:18:47;;;;;;;30.73;20.27;;;;;;;;;;5017649;28;20437;-66
2022/12/04 08:21:14;;;;;;;30.80;20.93;;;;;;;;;;5030834;28;20270;-66
2022/12/04 08:23:40;;;;;;;29.83;19.83;;;;;;;;;;5029541;28;20438;-66
2022/12/04 08:26:06;;;;;;;28.67;19.43;;;;;;;;;;5027944;28;20433;-66
2022/12/04 08:28:31;;;;;;;29.40;19.77;;;;;;;;;;5015365;28;21191;-66
2022/12/04 08:31:10;;;;;;;33.07;21.10;;;;;;;;;;5015812;28;20204;-65
2022/12/04 08:33:36;;;;;;;28.60;19.97;;;;;;;;;;5039716;28;20180;-66
2022/12/04 08:36:04;;;;;;;28.40;20.87;;;;;;;;;;5033134;28;20425;-66
2022/12/04 08:38:29;;;;;;;29.67;21.30;;;;;;;;;;5030829;28;20736;-66
2022/12/04 08:40:58;;;;;;;30.77;20.33;;;;;;;;;;5028896;28;20450;-66
2022/12/04 08:43:23;;;;;;;27.80;19.20;;;;;;;;;;5037876;28;20180;-67
2022/12/04 08:45:58;;;;;;;30.20;20.70;;;;;;;;;;5033453;28;20430;-67
2022/12/04 08:48:24;;;;;;;28.10;19.57;;;;;;;;;;5015903;28;20282;-66
2022/12/04 08:50:49;;;;;;;28.30;19.80;;;;;;;;;;5023598;28;20513;-67
2022/12/04 08:53:14;;;;;;;27.17;19.63;;;;;;;;;;5015354;28;20230;-69
2022/12/04 08:55:40;;;;;;;28.17;20.23;;;;;;;;;;5026769;28;21269;-67
2022/12/04 08:58:05;;;;;;;27.93;20.00;;;;;;;;;;5035469;28;20207;-66
2022/12/04 09:00:30;;;;;;;32.00;21.27;;;;;;;;;;5013296;28;20192;-66
2022/12/04 09:02:56;;;;;;;33.07;22.33;;;;;;;;;;5011484;28;20949;-65
2022/12/04 09:05:21;;;;;;;27.50;20.73;;;;;;;;;;5036167;28;20639;-66
2022/12/04 09:07:46;;;;;;;28.10;20.97;;;;;;;;;;5032889;28;20702;-67
2022/12/04 09:10:12;;;;;;;27.83;19.07;;;;;;;;;;5027563;28;20211;-67
2022/12/04 09:12:40;;;;;;;26.70;20.00;;;;;;;;;;5029766;28;20913;-69
2022/12/04 09:15:06;;;;;;;27.00;19.43;;;;;;;;;;5014935;28;20264;-67
2022/12/04 09:17:31;;;;;;;30.33;20.13;;;;;;;;;;5034748;28;20473;-68
2022/12/04 09:19:56;;;;;;;29.30;20.43;;;;;;;;;;5036542;28;20462;-67
2022/12/04 09:22:22;;;;;;;26.13;19.83;;;;;;;;;;5034476;28;20734;-71
2022/12/04 09:24:47;;;;;;;27.60;19.80;;;;;;;;;;5035155;28;20180;-67
2022/12/04 09:27:12;;;;;;;26.70;18.37;;;;;;;;;;5017996;28;20700;-67
2022/12/04 09:29:40;;;;;;;27.30;20.00;;;;;;;;;;5030725;28;20211;-67
2022/12/04 09:32:05;;;;;;;25.90;17.90;;;;;;;;;;5033058;28;20176;-66
2022/12/04 09:34:33;;;;;;;24.70;18.07;;;;;;;;;;5035127;28;20828;-68
2022/12/04 09:36:58;;;;;;;26.17;17.17;;;;;;;;;;5006257;28;20208;-66
2022/12/04 09:39:24;;;;;;;27.47;19.03;;;;;;;;;;5033384;28;20446;-67
2022/12/04 09:41:55;;;;;;;23.67;17.40;;;;;;;;;;5032807;28;20230;-66
2022/12/04 09:44:27;;;;;;;24.63;17.60;;;;;;;;;;5034096;28;20203;-67
2022/12/04 09:46:56;;;;;;;23.00;17.13;;;;;;;;;;5038583;28;20501;-67
2022/12/04 09:49:40;;;;;;;24.90;18.10;;;;;;;;;;5032890;28;20489;-67
2022/12/04 09:52:08;;;;;;;24.00;17.60;;;;;;;;;;5012558;28;20443;-67
2022/12/04 09:54:38;;;;;;;25.50;17.47;;;;;;;;;;5027524;28;20438;-67
2022/12/04 09:57:09;;;;;;;22.63;17.23;;;;;;;;;;5034180;28;20482;-67
2022/12/04 09:59:34;;;;;;;28.80;19.20;;;;;;;;;;5012534;28;20536;-68
2022/12/04 10:02:06;;;;;;;24.10;17.50;;;;;;;;;;5032069;28;20485;-67
2022/12/04 10:06:59;;;;;;;25.40;16.63;;;;;;;;;;5036405;28;20470;-65
2022/12/04 10:09:31;;;;;;;23.27;18.17;;;;;;;;;;5002270;28;22614;-65
2022/12/04 10:12:17;;;;;;;25.73;19.57;;;;;;;;;;5015671;28;20234;-64
2022/12/04 10:14:42;;;;;;;29.80;21.77;;;;;;;;;;5012985;28;20525;-65
2022/12/04 10:17:23;;;;;;;23.97;18.23;;;;;;;;;;5031513;28;20471;-65
2022/12/04 10:20:02;;;;;;;23.10;16.60;;;;;;;;;;5013799;28;20753;-65
2022/12/04 10:22:46;;;;;;;22.73;17.77;;;;;;;;;;5019751;28;21476;-66
2022/12/04 10:25:15;;;;;;;26.87;18.43;;;;;;;;;;5026700;28;20504;-65
2022/12/04 10:27:47;;;;;;;22.07;16.43;;;;;;;;;;5008000;28;20500;-64
2022/12/04 10:30:18;;;;;;;24.07;17.50;;;;;;;;;;5028208;28;20459;-64
2022/12/04 10:32:44;;;;;;;22.07;16.43;;;;;;;;;;5038033;28;20922;-64
2022/12/04 10:35:20;;;;;;;22.07;16.43;;;;;;;;;;5022642;28;20538;-64
2022/12/04 10:37:46;;;;;;;21.93;17.27;;;;;;;;;;5031404;28;20462;-64
2022/12/04 10:40:21;;;;;;;25.53;17.47;;;;;;;;;;5015327;28;20455;-65
2022/12/04 10:42:52;;;;;;;24.27;17.37;;;;;;;;;;5022869;28;20430;-65
2022/12/04 10:45:18;;;;;;;22.80;16.17;;;;;;;;;;5031825;28;20577;-65
2022/12/04 10:47:47;;;;;;;23.63;17.33;;;;;;;;;;5019511;28;20427;-65
2022/12/04 10:50:17;;;;;;;23.80;17.07;;;;;;;;;;5019615;28;20516;-65
2022/12/04 10:52:42;;;;;;;21.40;16.43;;;;;;;;;;5030858;28;20431;-65
2022/12/04 10:55:08;;;;;;;24.60;17.10;;;;;;;;;;5027287;28;20585;-65
2022/12/04 10:57:34;;;;;;;24.03;17.03;;;;;;;;;;5038663;28;20217;-65
2022/12/04 10:59:59;;;;;;;22.20;15.70;;;;;;;;;;5037027;28;20224;-65
2022/12/04 11:02:29;;;;;;;24.67;16.73;;;;;;;;;;5034398;28;20430;-67
2022/12/04 11:04:59;;;;;;;21.53;16.50;;;;;;;;;;5015746;28;20279;-65
2022/12/04 11:07:44;;;;;;;22.13;16.13;;;;;;;;;;5036556;28;20802;-65
2022/12/04 11:10:18;;;;;;;21.80;16.30;;;;;;;;;;5020312;28;20496;-65
2022/12/04 11:12:54;;;;;;;22.67;16.07;;;;;;;;;;5037573;28;20436;-65
2022/12/04 11:15:20;;;;;;;20.97;16.40;;;;;;;;;;5039158;28;20449;-65
2022/12/04 11:17:45;;;;;;;22.20;16.60;;;;;;;;;;5040417;28;20477;-65
2022/12/04 11:20:19;;;;;;;22.00;15.33;;;;;;;;;;5035398;28;20274;-65
2022/12/04 11:22:57;;;;;;;22.97;16.50;;;;;;;;;;5028894;28;20199;-65
2022/12/04 11:25:25;;;;;;;22.00;15.20;;;;;;;;;;5035181;28;20427;-64
2022/12/04 11:27:54;;;;;;;23.27;15.70;;;;;;;;;;5037396;28;20434;-63
2022/12/04 11:30:23;;;;;;;22.17;14.70;;;;;;;;;;5033804;28;20446;-64
2022/12/04 11:32:49;;;;;;;22.97;16.27;;;;;;;;;;5020862;28;20855;-64
2022/12/04 11:35:17;;;;;;;24.30;15.80;;;;;;;;;;5012519;28;20435;-64
2022/12/04 11:37:50;;;;;;;23.50;16.90;;;;;;;;;;5032956;28;20193;-64
2022/12/04 11:40:16;;;;;;;25.20;17.33;;;;;;;;;;5031172;28;20455;-64
2022/12/04 11:42:41;;;;;;;23.63;15.80;;;;;;;;;;5036757;28;20462;-64
2022/12/04 11:45:20;;;;;;;20.23;15.20;;;;;;;;;;5018333;28;20460;-63
2022/12/04 11:47:56;;;;;;;23.63;16.17;;;;;;;;;;5017198;28;20541;-64
2022/12/04 11:50:36;;;;;;;23.93;16.30;;;;;;;;;;5031338;28;20996;-63
2022/12/04 11:53:06;;;;;;;21.73;15.07;;;;;;;;;;5031850;28;20483;-65
2022/12/04 11:55:31;;;;;;;23.33;16.17;;;;;;;;;;5033622;28;20449;-66
2022/12/04 11:58:35;;;;;;;21.90;16.30;;;;;;;;;;5029110;28;20969;-66
2022/12/04 12:01:19;;;;;;;26.43;17.03;;;;;;;;;;4976151;28;20197;-66
2022/12/04 12:04:10;;;;;;;22.50;15.73;;;;;;;;;;4964364;28;21129;-67
2022/12/04 12:06:59;;;;;;;22.90;16.03;;;;;;;;;;4997101;28;20493;-67
2022/12/04 12:09:37;;;;;;;25.07;17.03;;;;;;;;;;5014633;28;20466;-66
2022/12/04 12:12:21;;;;;;;20.60;14.90;;;;;;;;;;5001379;28;20983;-68
2022/12/04 12:15:01;;;;;;;22.90;15.80;;;;;;;;;;5026893;28;20445;-66
2022/12/04 12:17:45;;;;;;;21.13;14.30;;;;;;;;;;5002933;28;20455;-66
2022/12/04 12:20:27;;;;;;;21.57;15.57;;;;;;;;;;5016143;28;20447;-67
2022/12/04 12:23:11;;;;;;;23.47;16.20;;;;;;;;;;5027050;28;20438;-66
2022/12/04 12:25:52;;;;;;;24.17;17.40;;;;;;;;;;5005781;28;20439;-66
2022/12/04 12:28:20;;;;;;;23.30;16.70;;;;;;;;;;5009095;28;20430;-67
2022/12/04 12:30:53;;;;;;;22.73;16.60;;;;;;;;;;5028462;28;20530;-65
2022/12/04 12:33:20;;;;;;;24.00;16.60;;;;;;;;;;5024190;28;20427;-66
2022/12/04 12:36:05;;;;;;;23.53;16.97;;;;;;;;;;5017973;28;20430;-65
2022/12/04 12:38:38;;;;;;;25.40;16.30;;;;;;;;;;5014979;28;20468;-64
2022/12/04 12:41:11;;;;;;;23.03;16.70;;;;;;;;;;5021525;28;20458;-71
2022/12/04 12:43:37;;;;;;;20.73;15.10;;;;;;;;;;5017348;28;20555;-75
2022/12/04 12:46:09;;;;;;;26.80;17.00;;;;;;;;;;5008512;28;20442;-72
2022/12/04 12:48:39;;;;;;;25.83;18.37;;;;;;;;;;5020103;28;21144;-72
2022/12/04 12:51:16;;;;;;;25.53;18.23;;;;;;;;;;5011006;28;20464;-72
2022/12/04 12:53:46;;;;;;;20.53;15.40;;;;;;;;;;5006231;28;20443;-72
2022/12/04 12:56:12;;;;;;;24.47;16.97;;;;;;;;;;5010077;28;20811;-71
2022/12/04 12:58:44;;;;;;;24.03;17.87;;;;;;;;;;5020373;28;20889;-72
2022/12/04 13:01:14;;;;;;;25.87;17.80;;;;;;;;;;5029003;28;20465;-72
2022/12/04 13:03:52;;;;;;;27.57;17.77;;;;;;;;;;5012720;28;20431;-73
2022/12/04 13:06:20;;;;;;;35.70;21.90;;;;;;;;;;5014740;28;20580;-72
2022/12/04 13:08:59;;;;;;;46.50;26.60;;;;;;;;;;5016334;28;20820;-72
2022/12/04 13:11:26;;;;;;;35.67;22.30;;;;;;;;;;5025500;28;20893;-72
2022/12/04 13:13:55;;;;;;;24.43;17.53;;;;;;;;;;5006715;28;20434;-74
2022/12/04 13:16:29;;;;;;;24.70;17.30;;;;;;;;;;5016758;28;20513;-73
2022/12/04 13:18:58;;;;;;;24.00;16.17;;;;;;;;;;5021278;28;20438;-73
2022/12/04 13:21:32;;;;;;;22.43;16.87;;;;;;;;;;5025846;28;20504;-73
2022/12/04 13:23:58;;;;;;;26.30;16.83;;;;;;;;;;5031510;28;20430;-73
2022/12/04 13:26:23;;;;;;;22.13;15.30;;;;;;;;;;5025375;28;20645;-71
2022/12/04 13:29:08;;;;;;;23.20;16.70;;;;;;;;;;5028572;28;20169;-72
2022/12/04 13:31:51;;;;;;;21.80;16.33;;;;;;;;;;4995718;28;20187;-72
2022/12/04 13:34:26;;;;;;;27.60;19.47;;;;;;;;;;5027075;28;20484;-72
2022/12/04 13:36:58;;;;;;;23.83;17.30;;;;;;;;;;5026521;28;20511;-72
2022/12/04 13:39:26;;;;;;;26.00;17.73;;;;;;;;;;5020930;28;20447;-72
2022/12/04 13:41:59;;;;;;;29.17;18.67;;;;;;;;;;5017107;28;20412;-73
2022/12/04 13:44:26;;;;;;;26.00;18.83;;;;;;;;;;5030678;28;20414;-74
2022/12/04 13:46:55;;;;;;;30.70;18.63;;;;;;;;;;5034539;28;20480;-73
2022/12/04 13:49:20;;;;;;;25.37;18.73;;;;;;;;;;5028167;28;20478;-73
2022/12/04 13:51:46;;;;;;;25.93;18.30;;;;;;;;;;5030260;28;20471;-72
2022/12/04 13:54:12;;;;;;;26.03;18.17;;;;;;;;;;5022770;28;20211;-72
2022/12/04 13:56:41;;;;;;;24.13;17.40;;;;;;;;;;5024013;28;20530;-72
2022/12/04 14:01:44;;;;;;;26.73;18.63;;;;;;;;;;3237470;26;20485;-73
2022/12/04 14:04:22;;;;;;;24.97;17.63;;;;;;;;;;5010870;28;20824;-75
2022/12/04 14:06:49;;;;;;;26.03;17.93;;;;;;;;;;5003225;28;20785;-72
2022/12/04 14:09:20;;;;;;;29.40;19.23;;;;;;;;;;4989661;28;20470;-72
2022/12/04 14:11:47;;;;;;;30.23;19.90;;;;;;;;;;5025613;28;20806;-71
2022/12/04 14:14:32;;;;;;;26.10;17.90;;;;;;;;;;5027978;28;20450;-72
2022/12/04 14:16:58;;;;;;;29.70;19.27;;;;;;;;;;5022992;28;20494;-73
2022/12/04 14:19:29;;;;;;;30.13;20.53;;;;;;;;;;5013709;28;20486;-73
2022/12/04 14:21:55;;;;;;;26.33;18.37;;;;;;;;;;5026111;28;20549;-73
2022/12/04 14:24:29;;;;;;;30.17;19.83;;;;;;;;;;5009547;28;20513;-74
2022/12/04 14:26:54;;;;;;;26.43;18.73;;;;;;;;;;5033032;28;20199;-74
2022/12/04 14:29:31;;;;;;;26.63;19.60;;;;;;;;;;5032323;28;20458;-72
2022/12/04 14:32:05;;;;;;;26.20;19.13;;;;;;;;;;5035752;28;20179;-72
2022/12/04 14:34:31;;;;;;;27.80;18.93;;;;;;;;;;5032146;28;20434;-72
2022/12/04 14:36:58;;;;;;;31.70;19.30;;;;;;;;;;5034432;28;20835;-72
2022/12/04 14:39:23;;;;;;;27.33;19.17;;;;;;;;;;5035886;28;20430;-72
2022/12/04 14:41:49;;;;;;;30.80;20.40;;;;;;;;;;5021545;28;20772;-72
2022/12/04 14:44:21;;;;;;;30.67;20.60;;;;;;;;;;5034833;28;20180;-72